KXMRKTTS

Guest
Details From KXMR - Cape Canaveral Afs Skid Strip
To KTTS - Nasa Shuttle Landing Facility
Flight Number -
Tags Generated
Created
Modified
Stats Distance 12 nm / 21 km
Max Altitude 0 ft / 0 m
Waypoints 2
Social Downloads 1
Likes 0
Share VATSIM

Download

Looking for another format? Having issues loading an existing format? Contact us
Advertisement - Login to hide

Notes

Generated

Route

KXMR KTTS

ID Type Via Altitude Latitude Longitude Leg Dist Tot Dist Heading (true) Name
O KXMR APT - 0 ft / 0 m 28.47601˚ -80.57891˚ - 0 nm - -
O KTTS APT - 0 ft / 0 m 28.63275˚ -80.70606˚ 11 nm 11 nm 325° / 324° -

Altitude Profile

Advertisement - Login to hide

KXMR

Details ICAO KXMR
Name CAPE CANAVERAL AFS SKID STRIP
Region United States
Timezone America/New_York (UTC-5.0)
Stats Elevation 10 ft / 3 m (AMSL)
Location 28.467586° -80.566615°
Runways 1
Magnetic Variation 6.873° W

METAR

KXMR 170058Z AUTO 33005KT 10SM CLR 16/14 A3023 RMK AO2 SLP240 T01560140 $

Decode

TAF

Not found

Departure Runways

ID Width Length Bearing (true) Bearing (mag) Surface Threshold Offset Overrun Length
13 200 ft / 61 m 10,002 ft / 3,049 m 127.93° 134.80° Asphalt 0 ft / 0 m 0 ft / 0 m
31 200 ft / 61 m 10,002 ft / 3,049 m 307.94° 314.81° Asphalt 0 ft / 0 m 0 ft / 0 m

KTTS

Details ICAO KTTS
Name NASA Shuttle Landing Facility
Region United States
Timezone America/New_York (UTC-5.0)
Stats Elevation 10 ft / 3 m (AMSL)
Location 28.614891° -80.694371°
Runways 1
Magnetic Variation 6.815° W

METAR

KTTS 170058Z AUTO 36003KT 10SM CLR 15/15 A3024 RMK AO2 SLP245 T01460146

Decode

TAF

Not found

Destination Runways

ID Width Length Bearing (true) Bearing (mag) Surface Threshold Offset Overrun Length
15 300 ft / 91 m 15,035 ft / 4,583 m 150.12° 156.94° Concrete 0 ft / 0 m 1,000 ft / 305 m
33 300 ft / 91 m 15,035 ft / 4,583 m 330.13° 336.95° Concrete 0 ft / 0 m 1,000 ft / 305 m